Time;durP1;ratioP1;P1;durP2;ratioP2;P2;SDS_P1;SDS_P2;PMS_P1;PMS_P2;Temp;Humidity;BMP_temperature;BMP_pressure;BME280_temperature;BME280_humidity;BME280_pressure;Samples;Min_cycle;Max_cycle;Signal;HPM_P1;HPM_P2
2023/05/28 00:00:49;;;;;;;;;;;17.50;99.90;;;;;;5033850;28;19909;-40
2023/05/28 00:03:18;;;;;;;;;;;17.50;99.90;;;;;;5033852;28;20425;-41
2023/05/28 00:05:44;;;;;;;;;;;17.50;99.90;;;;;;5033668;28;20015;-41
2023/05/28 00:08:10;;;;;;;;;;;17.50;99.90;;;;;;5033642;28;19916;-41
2023/05/28 00:10:36;;;;;;;;;;;17.40;99.90;;;;;;5034193;28;19904;-41
2023/05/28 00:13:01;;;;;;;;;;;17.40;99.90;;;;;;5033745;28;20251;-41
2023/05/28 00:15:27;;;;;;;;;;;17.50;99.90;;;;;;5033563;28;19909;-40
2023/05/28 00:17:53;;;;;;;;;;;17.50;99.90;;;;;;5033181;28;19905;-41
2023/05/28 00:20:19;;;;;;;;;;;17.40;99.90;;;;;;5033621;28;19912;-40
2023/05/28 00:22:45;;;;;;;;;;;17.40;99.90;;;;;;5033863;28;19909;-41
2023/05/28 00:25:11;;;;;;;;;;;17.40;99.90;;;;;;5033585;28;19919;-41
2023/05/28 00:27:37;;;;;;;;;;;17.40;99.90;;;;;;5033004;28;19905;-40
2023/05/28 00:30:02;;;;;;;;;;;17.40;99.90;;;;;;5033185;28;19909;-41
2023/05/28 00:32:28;;;;;;;;;;;17.40;99.90;;;;;;5033430;28;19911;-41
2023/05/28 00:34:53;;;;;;;;;;;17.40;99.90;;;;;;5033462;28;19912;-40
2023/05/28 00:37:19;;;;;;;;;;;17.40;99.90;;;;;;5032782;28;19904;-41
2023/05/28 00:39:44;;;;;;;;;;;17.40;99.90;;;;;;5033236;28;19909;-41
2023/05/28 00:42:12;;;;;;;;;;;17.30;99.90;;;;;;5033249;28;20366;-41
2023/05/28 00:44:41;;;;;;;;;;;17.30;99.90;;;;;;5032854;28;19971;-40
2023/05/28 00:47:06;;;;;;;;;;;17.30;99.90;;;;;;5032615;28;19909;-40
2023/05/28 00:49:32;;;;;;;;;;;17.30;99.90;;;;;;5033059;28;20042;-41
2023/05/28 00:51:58;;;;;;;;;;;17.30;99.90;;;;;;5033084;28;19915;-40
2023/05/28 00:54:25;;;;;;;;;;;17.30;99.90;;;;;;5032961;28;19905;-40
2023/05/28 00:56:53;;;;;;;;;;;17.30;99.90;;;;;;5032467;28;20363;-41
2023/05/28 00:59:19;;;;;;;;;;;17.30;99.90;;;;;;5032793;28;20005;-41
2023/05/28 01:01:44;;;;;;;;;;;17.30;99.90;;;;;;5032902;28;20360;-41
2023/05/28 01:04:10;;;;;;;;;;;17.30;99.90;;;;;;5032430;28;19909;-40
2023/05/28 01:06:39;;;;;;;;;;;17.30;99.90;;;;;;5032278;28;19909;-40
2023/05/28 01:09:05;;;;;;;;;;;17.30;99.90;;;;;;5032706;28;20350;-40
2023/05/28 01:11:31;;;;;;;;;;;17.30;99.90;;;;;;5032646;28;19996;-43
2023/05/28 01:13:57;;;;;;;;;;;17.30;99.90;;;;;;5032441;28;19996;-41
2023/05/28 01:16:22;;;;;;;;;;;17.30;99.90;;;;;;5032246;28;20000;-42
2023/05/28 01:18:48;;;;;;;;;;;17.30;99.90;;;;;;5032752;28;19909;-40
2023/05/28 01:21:14;;;;;;;;;;;17.30;99.90;;;;;;5032466;28;20343;-41
2023/05/28 01:23:39;;;;;;;;;;;17.30;99.90;;;;;;5032297;28;19941;-40
2023/05/28 01:26:05;;;;;;;;;;;17.30;99.90;;;;;;5031816;28;19951;-41
2023/05/28 01:28:32;;;;;;;;;;;17.30;99.90;;;;;;5031896;28;19920;-40
2023/05/28 01:30:58;;;;;;;;;;;17.30;99.90;;;;;;5032242;28;19909;-41
2023/05/28 01:33:24;;;;;;;;;;;17.30;99.90;;;;;;5032122;28;19915;-40
2023/05/28 01:35:51;;;;;;;;;;;17.30;99.90;;;;;;5031950;28;19916;-41
2023/05/28 01:38:17;;;;;;;;;;;17.30;99.90;;;;;;5032072;28;20117;-41
2023/05/28 01:40:43;;;;;;;;;;;17.30;99.90;;;;;;5031981;28;19905;-40
2023/05/28 01:43:09;;;;;;;;;;;17.30;99.90;;;;;;5032053;28;20290;-40
2023/05/28 01:45:35;;;;;;;;;;;17.30;99.90;;;;;;5032546;28;19909;-41
2023/05/28 01:48:01;;;;;;;;;;;17.20;99.90;;;;;;5031575;28;19987;-40
2023/05/28 01:50:28;;;;;;;;;;;17.20;99.90;;;;;;5032215;28;19909;-41
2023/05/28 01:52:54;;;;;;;;;;;17.20;99.90;;;;;;5031899;28;19911;-40
2023/05/28 01:55:19;;;;;;;;;;;17.20;99.90;;;;;;5031727;28;19991;-40
2023/05/28 01:57:45;;;;;;;;;;;17.20;99.90;;;;;;5031472;28;20302;-40
2023/05/28 02:00:11;;;;;;;;;;;17.10;99.90;;;;;;5031814;28;20373;-40
2023/05/28 02:02:36;;;;;;;;;;;17.20;99.90;;;;;;5031845;28;19911;-40
2023/05/28 02:05:03;;;;;;;;;;;17.20;99.90;;;;;;5031696;28;19959;-40
2023/05/28 02:07:29;;;;;;;;;;;17.20;99.90;;;;;;5031278;28;19905;-40
2023/05/28 02:09:55;;;;;;;;;;;17.20;99.90;;;;;;5031586;28;19963;-40
2023/05/28 02:12:20;;;;;;;;;;;17.20;99.90;;;;;;5031985;28;20341;-41
2023/05/28 02:14:46;;;;;;;;;;;17.10;99.90;;;;;;5031548;28;20004;-41
2023/05/28 02:17:12;;;;;;;;;;;17.20;99.90;;;;;;5030572;28;20320;-40
2023/05/28 02:19:37;;;;;;;;;;;17.10;99.90;;;;;;5031616;28;19909;-41
2023/05/28 02:22:11;;;;;;;;;;;17.10;99.90;;;;;;5031505;28;19905;-40
2023/05/28 02:24:39;;;;;;;;;;;17.10;99.90;;;;;;5031388;28;19909;-41
2023/05/28 02:27:08;;;;;;;;;;;17.10;99.90;;;;;;5030994;28;20325;-41
2023/05/28 02:29:33;;;;;;;;;;;17.10;99.90;;;;;;5013637;28;19909;-41
2023/05/28 02:32:00;;;;;;;;;;;17.10;99.90;;;;;;5031415;28;19909;-41
2023/05/28 02:34:25;;;;;;;;;;;17.10;99.90;;;;;;5031342;28;19905;-41
2023/05/28 02:36:52;;;;;;;;;;;17.10;99.90;;;;;;5030792;28;20247;-40
2023/05/28 02:39:18;;;;;;;;;;;17.10;99.90;;;;;;5031306;28;20004;-40
2023/05/28 02:41:43;;;;;;;;;;;17.10;99.90;;;;;;5031280;28;19996;-41
2023/05/28 02:44:09;;;;;;;;;;;17.10;99.90;;;;;;5031162;28;19916;-40
2023/05/28 02:46:34;;;;;;;;;;;17.10;99.90;;;;;;5031128;28;19906;-40
2023/05/28 02:49:00;;;;;;;;;;;17.10;99.90;;;;;;5031170;28;19916;-41
2023/05/28 02:51:25;;;;;;;;;;;17.10;99.90;;;;;;5031249;28;19959;-41
2023/05/28 02:53:51;;;;;;;;;;;17.10;99.90;;;;;;5031057;28;19916;-41
2023/05/28 02:56:16;;;;;;;;;;;17.10;99.90;;;;;;5030720;28;19905;-41
2023/05/28 02:58:42;;;;;;;;;;;17.00;99.90;;;;;;5031150;28;19970;-41
2023/05/28 03:01:07;;;;;;;;;;;17.00;99.90;;;;;;5031253;28;20400;-41
2023/05/28 03:03:33;;;;;;;;;;;17.00;99.90;;;;;;5031112;28;19905;-41
2023/05/28 03:05:58;;;;;;;;;;;17.00;99.90;;;;;;5030769;28;19916;-41
2023/05/28 03:08:24;;;;;;;;;;;17.00;99.90;;;;;;5030793;28;20016;-41
2023/05/28 03:10:50;;;;;;;;;;;17.00;99.90;;;;;;5031162;28;19987;-41
2023/05/28 03:13:15;;;;;;;;;;;17.00;99.90;;;;;;5030929;28;20321;-41
2023/05/28 03:15:41;;;;;;;;;;;16.90;99.90;;;;;;5030906;28;19913;-41
2023/05/28 03:18:06;;;;;;;;;;;17.00;99.90;;;;;;5031017;28;19927;-41
2023/05/28 03:20:32;;;;;;;;;;;17.00;99.90;;;;;;5030984;28;19905;-41
2023/05/28 03:22:58;;;;;;;;;;;17.00;99.90;;;;;;5030741;28;19915;-41
2023/05/28 03:25:24;;;;;;;;;;;16.90;99.90;;;;;;5030864;28;19944;-40
2023/05/28 03:27:50;;;;;;;;;;;16.90;99.90;;;;;;5031981;28;20445;-40
2023/05/28 03:30:15;;;;;;;;;;;16.90;99.90;;;;;;5034630;28;19913;-41
2023/05/28 03:32:41;;;;;;;;;;;16.90;99.90;;;;;;5034600;28;19908;-40
2023/05/28 03:35:07;;;;;;;;;;;16.90;99.90;;;;;;5034473;28;20377;-41
2023/05/28 03:37:33;;;;;;;;;;;16.90;99.90;;;;;;5033761;28;19905;-41
2023/05/28 03:39:59;;;;;;;;;;;16.80;99.90;;;;;;5034642;28;19905;-41
2023/05/28 03:42:24;;;;;;;;;;;16.90;99.90;;;;;;5034405;28;20021;-41
2023/05/28 03:44:50;;;;;;;;;;;16.90;99.90;;;;;;5034298;28;20362;-40
2023/05/28 03:47:15;;;;;;;;;;;16.90;99.90;;;;;;5033896;28;19905;-40
2023/05/28 03:49:41;;;;;;;;;;;16.80;99.90;;;;;;5034212;28;19913;-40
2023/05/28 03:52:07;;;;;;;;;;;16.80;99.90;;;;;;5034100;28;19909;-41
2023/05/28 03:54:32;;;;;;;;;;;16.80;99.90;;;;;;5034106;28;19905;-40
2023/05/28 03:56:58;;;;;;;;;;;16.80;99.90;;;;;;5033660;28;19909;-41
2023/05/28 03:59:23;;;;;;;;;;;16.80;99.90;;;;;;5034181;28;19909;-40
2023/05/28 04:01:49;;;;;;;;;;;16.80;99.90;;;;;;5034045;28;19905;-41
2023/05/28 04:04:15;;;;;;;;;;;16.80;99.90;;;;;;5033840;28;19905;-40
2023/05/28 04:06:41;;;;;;;;;;;16.80;99.90;;;;;;5033799;28;20248;-41
2023/05/28 04:09:07;;;;;;;;;;;16.80;99.90;;;;;;5016048;28;19987;-41
2023/05/28 04:11:34;;;;;;;;;;;16.80;99.90;;;;;;5033891;28;20375;-41
2023/05/28 04:14:00;;;;;;;;;;;16.80;99.90;;;;;;5033715;28;19952;-41
2023/05/28 04:16:26;;;;;;;;;;;16.80;99.90;;;;;;5033254;28;19944;-41
2023/05/28 04:18:52;;;;;;;;;;;16.80;99.90;;;;;;5033599;28;20023;-41
2023/05/28 04:21:18;;;;;;;;;;;16.80;99.90;;;;;;5033557;28;20118;-42
2023/05/28 04:23:43;;;;;;;;;;;16.80;99.90;;;;;;5033503;28;20023;-41
2023/05/28 04:26:09;;;;;;;;;;;16.80;99.90;;;;;;5033039;28;20362;-40
2023/05/28 04:28:36;;;;;;;;;;;16.80;99.90;;;;;;5033828;28;20377;-40
2023/05/28 04:31:02;;;;;;;;;;;16.80;99.90;;;;;;5034367;28;19905;-40
2023/05/28 04:33:31;;;;;;;;;;;16.80;99.90;;;;;;5033824;28;20062;-40
2023/05/28 04:36:01;;;;;;;;;;;16.80;99.90;;;;;;5032962;28;19913;-40
2023/05/28 04:38:31;;;;;;;;;;;16.80;99.90;;;;;;5033108;28;20006;-40
2023/05/28 04:40:57;;;;;;;;;;;16.80;99.90;;;;;;5032958;28;19912;-43
2023/05/28 04:43:23;;;;;;;;;;;16.80;99.90;;;;;;5033455;28;19917;-41
2023/05/28 04:45:49;;;;;;;;;;;16.80;99.90;;;;;;5032853;28;19912;-41
2023/05/28 04:48:15;;;;;;;;;;;16.80;99.90;;;;;;5032873;28;20007;-40
2023/05/28 04:50:41;;;;;;;;;;;16.80;99.90;;;;;;5033226;28;19916;-40
2023/05/28 04:53:06;;;;;;;;;;;16.80;99.90;;;;;;5033074;28;19987;-41
2023/05/28 04:55:32;;;;;;;;;;;16.80;99.90;;;;;;5015214;28;20433;-40
2023/05/28 04:57:57;;;;;;;;;;;16.80;99.90;;;;;;5032479;28;20003;-40
2023/05/28 05:00:25;;;;;;;;;;;16.70;99.90;;;;;;5032908;28;19916;-40
2023/05/28 05:02:52;;;;;;;;;;;16.70;99.90;;;;;;5032648;28;19908;-41
2023/05/28 05:05:18;;;;;;;;;;;16.70;99.90;;;;;;5032809;28;19966;-41
2023/05/28 05:07:43;;;;;;;;;;;16.70;99.90;;;;;;5032300;28;20404;-40
2023/05/28 05:10:09;;;;;;;;;;;16.70;99.90;;;;;;5032584;28;20024;-40
2023/05/28 05:12:35;;;;;;;;;;;16.70;99.90;;;;;;5032612;28;20000;-40
2023/05/28 05:15:01;;;;;;;;;;;16.70;99.90;;;;;;5032525;28;20232;-41
2023/05/28 05:17:26;;;;;;;;;;;16.70;99.90;;;;;;5031977;28;20108;-41
2023/05/28 05:19:52;;;;;;;;;;;16.70;99.90;;;;;;5032512;28;19956;-41
2023/05/28 05:22:17;;;;;;;;;;;16.70;99.90;;;;;;5032554;28;19909;-41
2023/05/28 05:24:43;;;;;;;;;;;16.70;99.90;;;;;;5032333;28;20271;-40
2023/05/28 05:27:08;;;;;;;;;;;16.70;99.90;;;;;;5031834;28;19995;-41
2023/05/28 05:29:34;;;;;;;;;;;16.70;99.90;;;;;;5032721;28;19912;-41
2023/05/28 05:32:00;;;;;;;;;;;16.70;99.90;;;;;;5032108;28;19905;-41
2023/05/28 05:34:25;;;;;;;;;;;16.70;99.90;;;;;;5032192;28;19905;-40
2023/05/28 05:36:51;;;;;;;;;;;16.70;99.90;;;;;;5031889;28;20283;-41
2023/05/28 05:39:16;;;;;;;;;;;16.70;99.90;;;;;;5032115;28;19911;-41
2023/05/28 05:41:42;;;;;;;;;;;16.70;99.90;;;;;;5032158;28;20492;-41
2023/05/28 05:44:07;;;;;;;;;;;16.70;99.90;;;;;;5031969;28;19987;-40
2023/05/28 05:46:33;;;;;;;;;;;16.70;99.90;;;;;;5031461;28;19916;-41
2023/05/28 05:48:58;;;;;;;;;;;16.80;99.90;;;;;;5031949;28;19971;-40
2023/05/28 05:51:24;;;;;;;;;;;16.80;99.90;;;;;;5031174;28;20363;-41
2023/05/28 05:53:49;;;;;;;;;;;16.80;99.90;;;;;;5031857;28;19945;-40
2023/05/28 05:56:15;;;;;;;;;;;16.80;99.90;;;;;;5031371;28;19947;-41
2023/05/28 05:58:40;;;;;;;;;;;16.80;99.90;;;;;;5031897;28;19912;-41
2023/05/28 06:01:06;;;;;;;;;;;16.80;99.90;;;;;;5031763;28;19944;-40
2023/05/28 06:03:31;;;;;;;;;;;16.80;99.90;;;;;;5031612;28;19912;-40
2023/05/28 06:05:57;;;;;;;;;;;16.90;99.90;;;;;;5031499;28;20120;-41
2023/05/28 06:08:22;;;;;;;;;;;16.90;99.90;;;;;;5031423;28;19905;-41
2023/05/28 06:10:48;;;;;;;;;;;16.90;99.90;;;;;;5031668;28;19931;-41
2023/05/28 06:13:14;;;;;;;;;;;16.90;99.90;;;;;;5031532;28;20355;-41
2023/05/28 06:15:39;;;;;;;;;;;16.90;99.90;;;;;;5031505;28;19909;-40
2023/05/28 06:18:05;;;;;;;;;;;16.90;99.90;;;;;;5031117;28;20411;-40
2023/05/28 06:20:31;;;;;;;;;;;16.90;99.90;;;;;;5031549;28;20414;-40
2023/05/28 06:22:56;;;;;;;;;;;16.90;99.90;;;;;;5031402;28;19916;-40
2023/05/28 06:25:22;;;;;;;;;;;16.90;99.90;;;;;;5031447;28;20355;-40
2023/05/28 06:27:48;;;;;;;;;;;17.00;99.90;;;;;;5030779;28;20161;-41
2023/05/28 06:30:14;;;;;;;;;;;17.00;99.90;;;;;;5031321;28;20023;-41
2023/05/28 06:32:40;;;;;;;;;;;17.10;99.90;;;;;;5031371;28;19972;-41
2023/05/28 06:35:06;;;;;;;;;;;17.10;99.90;;;;;;5031356;28;20400;-40
2023/05/28 06:37:31;;;;;;;;;;;17.00;99.90;;;;;;5030815;28;19911;-40
2023/05/28 06:39:57;;;;;;;;;;;17.10;99.90;;;;;;5031354;28;19999;-41
2023/05/28 06:42:23;;;;;;;;;;;17.10;99.90;;;;;;5031337;28;19905;-40
2023/05/28 06:44:48;;;;;;;;;;;17.10;99.90;;;;;;5031138;28;19924;-41
2023/05/28 06:47:13;;;;;;;;;;;17.10;99.90;;;;;;5030803;28;19905;-41
2023/05/28 06:49:39;;;;;;;;;;;17.10;99.90;;;;;;5031193;28;19955;-42
2023/05/28 06:52:05;;;;;;;;;;;17.10;99.90;;;;;;5031209;28;19951;-41
2023/05/28 06:54:30;;;;;;;;;;;17.10;99.90;;;;;;5031143;28;20366;-41
2023/05/28 06:56:56;;;;;;;;;;;17.10;99.90;;;;;;5030757;28;19935;-41
2023/05/28 06:59:21;;;;;;;;;;;17.10;99.90;;;;;;5031222;28;19916;-41
2023/05/28 07:01:47;;;;;;;;;;;17.10;99.90;;;;;;5031089;28;19996;-41
2023/05/28 07:04:12;;;;;;;;;;;17.20;99.90;;;;;;5034939;28;20307;-43
2023/05/28 07:06:38;;;;;;;;;;;17.10;99.90;;;;;;5034444;28;20401;-40
2023/05/28 07:09:04;;;;;;;;;;;17.10;99.90;;;;;;5034973;28;19909;-41
2023/05/28 07:11:29;;;;;;;;;;;17.20;99.90;;;;;;5034888;28;19905;-40
2023/05/28 07:13:55;;;;;;;;;;;17.20;99.90;;;;;;5034851;28;20271;-41
2023/05/28 07:16:21;;;;;;;;;;;17.20;99.90;;;;;;5034187;28;19955;-40
2023/05/28 07:18:46;;;;;;;;;;;17.20;99.90;;;;;;5034796;28;19972;-41
2023/05/28 07:21:12;;;;;;;;;;;17.20;99.90;;;;;;5034692;28;19905;-41
2023/05/28 07:23:37;;;;;;;;;;;17.20;99.90;;;;;;5034653;28;19920;-41
2023/05/28 07:26:03;;;;;;;;;;;17.20;99.90;;;;;;5034287;28;19920;-41
2023/05/28 07:28:28;;;;;;;;;;;17.20;99.90;;;;;;5034510;28;19909;-43
2023/05/28 07:30:54;;;;;;;;;;;17.20;99.90;;;;;;5034519;28;20015;-41
2023/05/28 07:33:20;;;;;;;;;;;17.20;99.90;;;;;;5034476;28;20386;-42
2023/05/28 07:35:45;;;;;;;;;;;17.20;99.90;;;;;;5034383;28;19909;-40
2023/05/28 07:38:12;;;;;;;;;;;17.30;99.90;;;;;;5034216;28;19905;-40
2023/05/28 07:40:38;;;;;;;;;;;17.30;99.90;;;;;;5034465;28;19915;-40
2023/05/28 07:43:03;;;;;;;;;;;17.30;99.90;;;;;;5034784;28;19921;-40
2023/05/28 07:45:29;;;;;;;;;;;17.30;99.90;;;;;;5034767;28;19909;-40
2023/05/28 07:47:54;;;;;;;;;;;17.30;99.90;;;;;;5033822;28;19909;-42
2023/05/28 07:50:20;;;;;;;;;;;17.30;99.90;;;;;;5034210;28;19909;-41
2023/05/28 07:52:45;;;;;;;;;;;17.30;99.90;;;;;;5034317;28;19987;-41
2023/05/28 07:55:11;;;;;;;;;;;17.30;99.90;;;;;;5034082;28;20386;-41
2023/05/28 07:57:36;;;;;;;;;;;17.30;99.90;;;;;;5033633;28;19910;-41
2023/05/28 08:00:06;;;;;;;;;;;17.30;99.90;;;;;;5034066;28;20589;-40
2023/05/28 08:02:32;;;;;;;;;;;17.30;99.90;;;;;;5034356;28;19905;-40
2023/05/28 08:04:59;;;;;;;;;;;17.30;99.90;;;;;;5033997;28;19909;-40
2023/05/28 08:07:24;;;;;;;;;;;17.30;99.90;;;;;;5033486;28;20000;-41
2023/05/28 08:09:50;;;;;;;;;;;17.30;99.90;;;;;;5033899;28;20016;-40
2023/05/28 08:12:16;;;;;;;;;;;17.30;99.90;;;;;;5033839;28;19909;-41
2023/05/28 08:14:41;;;;;;;;;;;17.30;99.90;;;;;;5032616;28;19905;-41
2023/05/28 08:17:07;;;;;;;;;;;17.30;99.90;;;;;;5033254;28;20369;-40
2023/05/28 08:19:32;;;;;;;;;;;17.40;99.90;;;;;;5033804;28;20043;-41
2023/05/28 08:21:58;;;;;;;;;;;17.40;99.90;;;;;;5033718;28;19909;-40
2023/05/28 08:24:23;;;;;;;;;;;17.40;99.90;;;;;;5033534;28;19958;-40
2023/05/28 08:26:49;;;;;;;;;;;17.40;99.90;;;;;;5033078;28;19909;-41
2023/05/28 08:29:14;;;;;;;;;;;17.40;99.90;;;;;;5033284;28;20359;-41
2023/05/28 08:31:40;;;;;;;;;;;17.40;99.90;;;;;;5033527;28;20481;-40
2023/05/28 08:34:06;;;;;;;;;;;17.40;99.90;;;;;;5033328;28;20337;-40
2023/05/28 08:36:31;;;;;;;;;;;17.40;99.90;;;;;;5032920;28;20351;-41
2023/05/28 08:38:57;;;;;;;;;;;17.40;99.90;;;;;;5033339;28;19971;-40
2023/05/28 08:41:23;;;;;;;;;;;17.40;99.90;;;;;;5033317;28;20000;-42
2023/05/28 08:43:49;;;;;;;;;;;17.50;99.90;;;;;;5032958;28;19956;-41
2023/05/28 08:46:15;;;;;;;;;;;17.50;99.90;;;;;;5032829;28;19948;-41
2023/05/28 08:48:41;;;;;;;;;;;17.50;99.90;;;;;;5033108;28;19905;-41
2023/05/28 08:51:08;;;;;;;;;;;17.40;99.90;;;;;;5033170;28;19904;-41
2023/05/28 08:53:39;;;;;;;;;;;17.40;99.90;;;;;;5032974;28;19908;-40
2023/05/28 08:56:05;;;;;;;;;;;17.50;99.90;;;;;;5032561;28;19905;-41
2023/05/28 08:58:30;;;;;;;;;;;17.50;99.90;;;;;;5032905;28;20289;-42
2023/05/28 09:00:56;;;;;;;;;;;17.50;99.90;;;;;;5032863;28;19945;-41
2023/05/28 09:03:21;;;;;;;;;;;17.50;99.90;;;;;;5032973;28;19906;-40
2023/05/28 09:05:47;;;;;;;;;;;17.50;99.90;;;;;;5032571;28;19905;-41
2023/05/28 09:08:12;;;;;;;;;;;17.50;99.90;;;;;;5032574;28;19916;-40
2023/05/28 09:10:38;;;;;;;;;;;17.50;99.90;;;;;;5032553;28;19913;-40
2023/05/28 09:13:06;;;;;;;;;;;17.50;99.90;;;;;;5032519;28;19909;-41
2023/05/28 09:15:34;;;;;;;;;;;17.50;99.90;;;;;;5032651;28;19929;-40
2023/05/28 09:18:00;;;;;;;;;;;17.60;99.90;;;;;;5032064;28;19996;-40
2023/05/28 09:20:26;;;;;;;;;;;17.50;99.90;;;;;;5032507;28;20004;-41
2023/05/28 09:23:06;;;;;;;;;;;17.60;99.90;;;;;;5032395;28;19912;-41
2023/05/28 09:25:36;;;;;;;;;;;17.60;99.90;;;;;;5032180;28;20003;-44
2023/05/28 09:28:01;;;;;;;;;;;17.60;99.90;;;;;;5031962;28;20274;-40
2023/05/28 09:30:29;;;;;;;;;;;17.60;99.90;;;;;;5032469;28;19909;-40
2023/05/28 09:33:05;;;;;;;;;;;17.60;99.90;;;;;;5032527;28;20367;-40
2023/05/28 09:35:30;;;;;;;;;;;17.60;99.90;;;;;;5032255;28;19909;-41
2023/05/28 09:38:07;;;;;;;;;;;17.60;99.90;;;;;;5031664;28;20440;-41
2023/05/28 09:40:42;;;;;;;;;;;17.60;99.90;;;;;;5032168;28;20004;-40
2023/05/28 09:43:08;;;;;;;;;;;17.60;99.90;;;;;;5032046;28;19913;-41
2023/05/28 09:45:34;;;;;;;;;;;17.60;99.90;;;;;;5032284;28;19920;-41
2023/05/28 09:47:59;;;;;;;;;;;17.70;99.90;;;;;;5031490;28;19959;-40
2023/05/28 09:50:25;;;;;;;;;;;17.70;99.90;;;;;;5031825;28;19909;-41
2023/05/28 09:52:53;;;;;;;;;;;17.70;99.90;;;;;;5032139;28;20282;-40
2023/05/28 09:55:21;;;;;;;;;;;17.70;99.90;;;;;;5031957;28;19956;-40
2023/05/28 09:58:01;;;;;;;;;;;17.70;99.90;;;;;;5031686;28;19909;-41
2023/05/28 10:00:31;;;;;;;;;;;17.70;99.90;;;;;;5031883;28;19909;-42
2023/05/28 10:02:59;;;;;;;;;;;17.70;99.90;;;;;;5031582;28;19909;-41
2023/05/28 10:05:27;;;;;;;;;;;17.70;99.90;;;;;;5031704;28;19958;-41
2023/05/28 10:07:53;;;;;;;;;;;17.70;99.90;;;;;;5031276;28;20434;-41
2023/05/28 10:10:20;;;;;;;;;;;17.70;99.90;;;;;;5031664;28;20062;-41
2023/05/28 10:12:46;;;;;;;;;;;17.70;99.90;;;;;;5032068;28;20461;-41
2023/05/28 10:15:12;;;;;;;;;;;17.70;99.90;;;;;;5031497;28;19920;-41
2023/05/28 10:17:37;;;;;;;;;;;17.70;99.90;;;;;;5031006;28;20327;-41
2023/05/28 10:20:10;;;;;;;;;;;17.70;99.90;;;;;;5031558;28;19916;-42
2023/05/28 10:22:36;;;;;;;;;;;17.70;99.90;;;;;;5031604;28;19916;-42
2023/05/28 10:25:01;;;;;;;;;;;17.70;99.90;;;;;;5031442;28;19905;-40
2023/05/28 10:27:33;;;;;;;;;;;17.80;99.90;;;;;;5030961;28;19911;-41
2023/05/28 10:30:02;;;;;;;;;;;17.80;99.90;;;;;;5031269;28;20003;-40
2023/05/28 10:32:27;;;;;;;;;;;17.80;99.90;;;;;;5031403;28;19992;-41
2023/05/28 10:35:00;;;;;;;;;;;17.80;99.90;;;;;;5031414;28;19999;-41
2023/05/28 10:37:25;;;;;;;;;;;17.80;99.90;;;;;;5033665;28;19909;-41
2023/05/28 10:39:51;;;;;;;;;;;17.80;99.90;;;;;;5037954;28;19996;-41
2023/05/28 10:42:17;;;;;;;;;;;17.80;99.90;;;;;;5037947;28;19912;-41
2023/05/28 10:44:48;;;;;;;;;;;17.80;99.90;;;;;;5037785;28;19913;-41
2023/05/28 10:47:14;;;;;;;;;;;17.80;99.90;;;;;;5037582;28;20353;-41
2023/05/28 10:49:57;;;;;;;;;;;17.90;99.90;;;;;;5037844;28;19913;-41
2023/05/28 10:52:22;;;;;;;;;;;17.90;99.90;;;;;;5038331;28;19951;-41
2023/05/28 10:54:50;;;;;;;;;;;17.90;99.90;;;;;;5037752;28;19941;-41
2023/05/28 10:57:16;;;;;;;;;;;17.90;99.90;;;;;;5037888;28;19915;-42
2023/05/28 10:59:46;;;;;;;;;;;17.90;99.90;;;;;;5037786;28;19995;-40
2023/05/28 11:02:12;;;;;;;;;;;17.90;99.90;;;;;;5037698;28;19963;-40
2023/05/28 11:04:39;;;;;;;;;;;17.90;99.90;;;;;;5037678;28;20016;-40
2023/05/28 11:07:05;;;;;;;;;;;17.90;99.90;;;;;;5037235;28;19905;-40
2023/05/28 11:09:31;;;;;;;;;;;17.90;99.90;;;;;;5037511;28;19920;-41
2023/05/28 11:12:03;;;;;;;;;;;17.90;99.90;;;;;;5037653;28;20016;-41
2023/05/28 11:14:32;;;;;;;;;;;17.90;99.90;;;;;;5037579;28;19996;-40
2023/05/28 11:16:58;;;;;;;;;;;17.90;99.90;;;;;;5037408;28;19947;-40
2023/05/28 11:19:23;;;;;;;;;;;17.90;99.90;;;;;;5037638;28;19948;-41
2023/05/28 11:21:50;;;;;;;;;;;17.90;99.90;;;;;;5037623;28;20381;-41
2023/05/28 11:24:15;;;;;;;;;;;18.00;99.90;;;;;;5037861;28;20267;-41
2023/05/28 11:26:41;;;;;;;;;;;18.00;99.90;;;;;;5036996;28;19909;-41
2023/05/28 11:29:06;;;;;;;;;;;18.00;99.90;;;;;;5037394;28;19963;-42
2023/05/28 11:31:41;;;;;;;;;;;18.00;99.90;;;;;;5037618;28;19940;-41
2023/05/28 11:34:07;;;;;;;;;;;18.00;99.90;;;;;;5037431;28;19992;-40
2023/05/28 11:36:43;;;;;;;;;;;18.00;99.90;;;;;;5036911;28;19905;-41
2023/05/28 11:39:09;;;;;;;;;;;18.00;99.90;;;;;;5037453;28;20334;-40
2023/05/28 11:41:34;;;;;;;;;;;18.00;99.90;;;;;;5037497;28;19905;-41
2023/05/28 11:44:00;;;;;;;;;;;18.00;99.90;;;;;;5037523;28;19920;-41
2023/05/28 11:46:26;;;;;;;;;;;18.10;99.90;;;;;;5037228;28;20062;-42
2023/05/28 11:48:51;;;;;;;;;;;18.10;99.90;;;;;;5035986;28;19905;-40
2023/05/28 11:51:20;;;;;;;;;;;18.10;99.90;;;;;;5034117;28;19940;-40
2023/05/28 11:53:46;;;;;;;;;;;18.10;99.90;;;;;;5034172;28;19904;-41
2023/05/28 11:56:12;;;;;;;;;;;18.10;99.90;;;;;;5033645;28;20306;-41
2023/05/28 11:58:40;;;;;;;;;;;18.10;99.90;;;;;;5034230;28;20359;-40
2023/05/28 12:01:06;;;;;;;;;;;18.10;99.90;;;;;;5034186;28;19905;-41
2023/05/28 12:03:32;;;;;;;;;;;18.10;99.90;;;;;;5016375;28;20002;-40
2023/05/28 12:05:57;;;;;;;;;;;18.10;99.90;;;;;;5033632;28;20360;-40
2023/05/28 12:08:23;;;;;;;;;;;18.10;99.90;;;;;;5034011;28;19905;-40
2023/05/28 12:10:48;;;;;;;;;;;18.10;99.90;;;;;;5033893;28;19917;-41
2023/05/28 12:13:14;;;;;;;;;;;18.10;99.90;;;;;;5033846;28;19915;-41
2023/05/28 12:15:39;;;;;;;;;;;18.10;99.90;;;;;;5033981;28;19909;-40
2023/05/28 12:18:06;;;;;;;;;;;18.10;99.90;;;;;;5015878;28;19905;-41
2023/05/28 12:20:32;;;;;;;;;;;18.10;99.90;;;;;;5033629;28;20354;-40
2023/05/28 12:23:01;;;;;;;;;;;18.20;99.90;;;;;;5033618;28;19911;-41
2023/05/28 12:25:27;;;;;;;;;;;18.20;99.90;;;;;;5033655;28;19951;-41
2023/05/28 12:27:52;;;;;;;;;;;18.20;99.90;;;;;;5033144;28;19909;-40
2023/05/28 12:30:18;;;;;;;;;;;18.20;99.90;;;;;;5033558;28;20151;-40
2023/05/28 12:32:43;;;;;;;;;;;18.20;99.90;;;;;;5033852;28;19944;-41
2023/05/28 12:35:09;;;;;;;;;;;18.20;99.90;;;;;;5033346;28;19909;-40
2023/05/28 12:37:35;;;;;;;;;;;18.20;99.90;;;;;;5033000;28;20424;-41
2023/05/28 12:40:00;;;;;;;;;;;18.20;99.90;;;;;;5033504;28;20366;-40
2023/05/28 12:42:26;;;;;;;;;;;18.20;99.90;;;;;;5033414;28;20000;-41
2023/05/28 12:44:51;;;;;;;;;;;18.20;99.90;;;;;;5033051;28;19913;-40
2023/05/28 12:47:17;;;;;;;;;;;18.20;99.90;;;;;;5032711;28;20379;-42
2023/05/28 12:49:43;;;;;;;;;;;18.20;99.90;;;;;;5033011;28;19916;-41
2023/05/28 12:52:08;;;;;;;;;;;18.20;99.90;;;;;;5033140;28;19916;-40
2023/05/28 12:54:34;;;;;;;;;;;18.20;99.90;;;;;;5032962;28;19905;-41
2023/05/28 12:56:59;;;;;;;;;;;18.20;99.90;;;;;;5032549;28;19912;-40
2023/05/28 12:59:26;;;;;;;;;;;18.20;99.90;;;;;;5033010;28;20424;-41
2023/05/28 13:01:52;;;;;;;;;;;18.20;99.90;;;;;;5032410;28;20329;-40
2023/05/28 13:04:18;;;;;;;;;;;18.20;99.90;;;;;;5032818;28;19905;-41
2023/05/28 13:06:44;;;;;;;;;;;18.20;99.90;;;;;;5032304;28;19992;-40
2023/05/28 13:09:12;;;;;;;;;;;18.20;99.90;;;;;;5032825;28;19932;-41
2023/05/28 13:11:38;;;;;;;;;;;18.20;99.90;;;;;;5032769;28;19909;-41
2023/05/28 13:14:03;;;;;;;;;;;18.20;99.90;;;;;;5032821;28;19961;-41
2023/05/28 13:16:29;;;;;;;;;;;18.30;99.90;;;;;;5014652;28;19952;-41
2023/05/28 13:18:55;;;;;;;;;;;18.30;99.90;;;;;;5032548;28;19905;-41
2023/05/28 13:21:21;;;;;;;;;;;18.20;99.90;;;;;;5032603;28;20008;-40
2023/05/28 13:23:47;;;;;;;;;;;18.20;99.90;;;;;;5032500;28;20371;-41
2023/05/28 13:26:12;;;;;;;;;;;18.20;99.90;;;;;;5031992;28;19905;-40
2023/05/28 13:28:38;;;;;;;;;;;18.30;99.90;;;;;;5032437;28;19920;-40
2023/05/28 13:31:03;;;;;;;;;;;18.30;99.90;;;;;;5032203;28;19913;-42
2023/05/28 13:33:29;;;;;;;;;;;18.30;99.90;;;;;;5032306;28;19941;-41
2023/05/28 13:35:54;;;;;;;;;;;18.30;99.90;;;;;;5032033;28;20355;-40
2023/05/28 13:38:20;;;;;;;;;;;18.30;99.90;;;;;;5032101;28;19909;-41
2023/05/28 13:40:45;;;;;;;;;;;18.30;99.90;;;;;;5032235;28;19992;-40
2023/05/28 13:43:13;;;;;;;;;;;18.30;99.90;;;;;;5031939;28;19920;-41
2023/05/28 13:45:40;;;;;;;;;;;18.30;99.90;;;;;;5032677;28;19913;-41
2023/05/28 13:48:06;;;;;;;;;;;18.30;99.90;;;;;;5031735;28;19905;-40
2023/05/28 13:50:33;;;;;;;;;;;18.30;99.90;;;;;;5014129;28;19958;-41
2023/05/28 13:52:58;;;;;;;;;;;18.30;99.90;;;;;;5031940;28;19905;-40
2023/05/28 13:55:24;;;;;;;;;;;18.30;99.90;;;;;;5031961;28;20051;-40
2023/05/28 13:57:50;;;;;;;;;;;18.30;99.90;;;;;;5031388;28;20290;-41
2023/05/28 14:00:17;;;;;;;;;;;18.30;99.90;;;;;;5031812;28;19912;-41
2023/05/28 14:02:42;;;;;;;;;;;18.30;99.90;;;;;;5031887;28;19940;-40
2023/05/28 14:05:08;;;;;;;;;;;18.30;99.90;;;;;;5032065;28;19964;-41
2023/05/28 14:07:34;;;;;;;;;;;18.40;99.90;;;;;;5031238;28;19905;-40
2023/05/28 14:10:00;;;;;;;;;;;18.40;99.90;;;;;;5031654;28;20428;-40